createdAt,value
2023-05-19T00:01:51.796Z,13.80
2023-05-19T00:04:24.002Z,13.57
2023-05-19T00:06:56.951Z,10.60
2023-05-19T00:09:26.837Z,10.65
2023-05-19T00:11:58.198Z,8.10
2023-05-19T00:14:30.598Z,9.73
2023-05-19T00:17:00.644Z,12.93
2023-05-19T00:19:33.794Z,21.10
2023-05-19T00:22:03.497Z,11.70
2023-05-19T00:24:36.986Z,12.80
2023-05-19T00:27:07.681Z,12.27
2023-05-19T00:29:37.489Z,14.38
2023-05-19T00:32:09.652Z,15.75
2023-05-19T00:34:40.347Z,18.38
2023-05-19T00:37:10.110Z,14.05
2023-05-19T00:39:40.198Z,28.63
2023-05-19T00:42:12.783Z,13.65
2023-05-19T00:44:44.229Z,16.88
2023-05-19T00:47:13.987Z,25.30
2023-05-19T00:49:43.651Z,15.15
2023-05-19T00:52:13.332Z,14.73
2023-05-19T00:54:43.082Z,18.88
2023-05-19T00:57:13.030Z,15.40
2023-05-19T00:59:44.391Z,15.95
2023-05-19T01:02:14.929Z,15.38
2023-05-19T01:04:45.451Z,18.20
2023-05-19T01:07:17.262Z,16.40
2023-05-19T01:09:47.383Z,13.63
2023-05-19T01:12:17.893Z,11.95
2023-05-19T01:14:47.628Z,15.10
2023-05-19T01:17:47.873Z,17.58
2023-05-19T01:20:24.507Z,17.75
2023-05-19T01:23:27.634Z,15.57
2023-05-19T01:26:09.490Z,18.48
2023-05-19T01:29:03.502Z,20.20
2023-05-19T01:31:33.200Z,15.13
2023-05-19T01:34:02.946Z,40.20
2023-05-19T01:36:38.277Z,21.05
2023-05-19T01:41:37.531Z,17.08
2023-05-19T01:44:11.010Z,17.42
2023-05-19T01:46:41.803Z,19.48
2023-05-19T01:49:12.549Z,12.93
2023-05-19T01:51:42.773Z,23.38
2023-05-19T01:54:12.478Z,12.40
2023-05-19T01:56:55.112Z,14.07
2023-05-19T01:59:39.988Z,14.55
2023-05-19T02:02:42.423Z,11.18
2023-05-19T02:05:46.682Z,15.20
2023-05-19T02:08:34.569Z,11.63
2023-05-19T02:11:09.557Z,12.25
2023-05-19T02:13:40.345Z,11.48
2023-05-19T02:16:10.291Z,12.23
2023-05-19T02:18:40.666Z,11.88
2023-05-19T02:21:14.692Z,12.10
2023-05-19T02:23:44.388Z,9.52
2023-05-19T02:26:15.245Z,13.82
2023-05-19T02:28:44.988Z,11.18
2023-05-19T02:31:15.092Z,8.73
2023-05-19T02:33:46.500Z,7.55
2023-05-19T02:36:16.384Z,8.50
2023-05-19T02:38:46.173Z,8.65
2023-05-19T02:41:16.602Z,8.00
2023-05-19T02:43:46.619Z,7.97
2023-05-19T02:46:16.775Z,9.48
2023-05-19T02:48:46.500Z,8.80
2023-05-19T02:51:18.719Z,8.50
2023-05-19T02:53:48.421Z,8.73
2023-05-19T02:56:18.136Z,8.35
2023-05-19T02:58:47.896Z,8.18
2023-05-19T03:01:18.044Z,8.38
2023-05-19T03:03:47.894Z,8.23
2023-05-19T03:06:19.514Z,9.88
2023-05-19T03:08:49.391Z,8.75
2023-05-19T03:11:19.341Z,8.00
2023-05-19T03:13:49.089Z,8.38
2023-05-19T03:16:18.940Z,8.32
2023-05-19T03:18:48.725Z,8.55
2023-05-19T03:21:19.539Z,8.02
2023-05-19T03:23:49.705Z,7.65
2023-05-19T03:26:20.154Z,9.93
2023-05-19T03:28:49.863Z,8.43
2023-05-19T03:31:19.915Z,7.35
2023-05-19T03:33:49.625Z,9.00
2023-05-19T03:36:23.608Z,8.48
2023-05-19T03:38:55.707Z,8.38
2023-05-19T03:41:25.479Z,9.02
2023-05-19T03:43:55.178Z,8.40
2023-05-19T03:46:24.993Z,8.52
2023-05-19T03:48:57.692Z,10.23
2023-05-19T03:51:31.046Z,8.05
2023-05-19T03:54:00.823Z,7.45
2023-05-19T03:56:31.229Z,8.77
2023-05-19T03:59:01.022Z,7.53
2023-05-19T04:01:31.058Z,8.05
2023-05-19T04:04:00.800Z,8.93
2023-05-19T04:06:30.952Z,7.85
2023-05-19T04:09:00.702Z,7.63
2023-05-19T04:11:33.252Z,7.70
2023-05-19T04:14:02.981Z,8.35
2023-05-19T04:16:32.821Z,12.43
2023-05-19T04:19:02.798Z,10.77
2023-05-19T04:21:32.529Z,9.50
2023-05-19T04:24:02.596Z,13.50
2023-05-19T04:26:32.558Z,9.57
2023-05-19T04:29:06.975Z,8.88
2023-05-19T04:31:37.659Z,8.95
2023-05-19T04:34:07.519Z,7.78
2023-05-19T04:36:37.680Z,7.95
2023-05-19T04:39:11.710Z,10.32
2023-05-19T04:41:41.934Z,9.05
2023-05-19T04:44:11.695Z,7.65
2023-05-19T04:46:41.544Z,8.10
2023-05-19T04:49:14.027Z,8.07
2023-05-19T04:51:43.965Z,8.18
2023-05-19T04:54:13.697Z,8.52
2023-05-19T04:56:45.162Z,6.75
2023-05-19T04:59:14.823Z,7.15
2023-05-19T05:01:44.698Z,8.25
2023-05-19T05:04:17.166Z,7.75
2023-05-19T05:06:49.618Z,7.20
2023-05-19T05:09:19.681Z,10.90
2023-05-19T05:11:49.545Z,19.83
2023-05-19T05:14:19.806Z,29.92
2023-05-19T05:16:49.943Z,23.52
2023-05-19T05:19:20.057Z,28.27
2023-05-19T05:21:50.785Z,14.25
2023-05-19T05:24:21.555Z,16.52
2023-05-19T05:26:52.451Z,15.10
2023-05-19T05:29:22.875Z,13.70
2023-05-19T05:31:53.323Z,14.93
2023-05-19T05:34:23.371Z,10.35
2023-05-19T05:36:53.096Z,10.73
2023-05-19T05:39:22.866Z,10.57
2023-05-19T05:41:53.026Z,11.23
2023-05-19T05:44:26.621Z,9.27
2023-05-19T05:46:57.427Z,9.05
2023-05-19T05:49:27.425Z,10.57
2023-05-19T05:52:05.809Z,8.18
2023-05-19T05:54:37.940Z,10.07
2023-05-19T05:57:08.963Z,10.18
2023-05-19T05:59:38.747Z,9.20
2023-05-19T06:02:10.320Z,9.43
2023-05-19T06:04:41.176Z,9.10
2023-05-19T06:07:10.985Z,11.57
2023-05-19T06:09:43.578Z,12.68
2023-05-19T06:12:13.452Z,8.90
2023-05-19T06:14:43.274Z,7.85
2023-05-19T06:17:13.041Z,8.63
2023-05-19T06:19:43.353Z,8.23
2023-05-19T06:22:13.154Z,8.93
2023-05-19T06:24:45.651Z,10.13
2023-05-19T06:27:15.703Z,7.55
2023-05-19T06:29:46.167Z,7.13
2023-05-19T06:32:18.994Z,7.82
2023-05-19T06:34:55.511Z,7.63
2023-05-19T06:37:25.435Z,8.20
2023-05-19T06:39:55.744Z,7.40
2023-05-19T06:42:28.564Z,8.82
2023-05-19T06:44:59.874Z,8.15
2023-05-19T06:47:29.633Z,6.00
2023-05-19T06:49:59.908Z,9.85
2023-05-19T06:52:31.273Z,8.60
2023-05-19T06:55:02.058Z,8.93
2023-05-19T06:57:32.241Z,8.07
2023-05-19T07:00:02.155Z,7.00
2023-05-19T07:02:32.808Z,7.40
2023-05-19T07:05:02.691Z,8.10
2023-05-19T07:07:32.885Z,8.20
2023-05-19T07:10:03.376Z,9.35
2023-05-19T07:12:33.161Z,8.63
2023-05-19T07:15:03.673Z,6.65
2023-05-19T07:17:37.035Z,9.95
2023-05-19T07:20:11.678Z,6.15
2023-05-19T07:22:42.365Z,7.53
2023-05-19T07:25:15.112Z,8.88
2023-05-19T07:27:45.372Z,6.85
2023-05-19T07:30:15.421Z,8.13
2023-05-19T07:32:45.220Z,6.72
2023-05-19T07:35:15.461Z,7.88
2023-05-19T07:37:45.223Z,7.53
2023-05-19T07:40:15.650Z,7.13
2023-05-19T07:42:46.146Z,8.35
2023-05-19T07:45:16.777Z,6.35
2023-05-19T07:47:46.742Z,6.65
2023-05-19T07:50:19.450Z,6.45
2023-05-19T07:52:49.184Z,7.00
2023-05-19T07:55:22.349Z,7.45
2023-05-19T07:57:52.696Z,7.10
2023-05-19T08:00:23.289Z,7.10
2023-05-19T08:02:55.232Z,6.85
2023-05-19T08:05:26.090Z,6.22
2023-05-19T08:07:57.224Z,6.57
2023-05-19T08:10:27.188Z,7.05
2023-05-19T08:13:15.709Z,6.97
2023-05-19T08:15:46.816Z,8.07
2023-05-19T08:18:16.602Z,6.00
2023-05-19T08:20:48.583Z,5.93
2023-05-19T08:23:20.450Z,6.85
2023-05-19T08:25:51.055Z,7.63
2023-05-19T08:28:20.794Z,6.05
2023-05-19T08:30:50.496Z,6.18
2023-05-19T08:33:23.335Z,6.68
2023-05-19T08:35:54.497Z,5.97
2023-05-19T08:38:25.524Z,6.38
2023-05-19T08:40:55.755Z,7.20
2023-05-19T08:43:25.796Z,6.82
2023-05-19T08:45:56.044Z,6.60
2023-05-19T08:48:25.837Z,7.55
2023-05-19T08:51:27.053Z,6.45
2023-05-19T08:53:59.803Z,6.32
2023-05-19T08:56:29.578Z,7.13
2023-05-19T08:59:01.902Z,6.68
2023-05-19T09:01:31.907Z,8.52
2023-05-19T09:04:01.865Z,6.18
2023-05-19T09:06:34.646Z,6.75
2023-05-19T09:09:05.520Z,7.50
2023-05-19T09:11:42.298Z,6.32
2023-05-19T09:14:12.213Z,7.07
2023-05-19T09:16:42.715Z,6.70
2023-05-19T09:19:18.801Z,8.43
2023-05-19T09:21:50.145Z,6.68
2023-05-19T09:24:20.706Z,6.70
2023-05-19T09:26:53.102Z,6.45
2023-05-19T09:29:23.972Z,7.28
2023-05-19T09:31:54.307Z,7.47
2023-05-19T09:34:27.146Z,10.27
2023-05-19T09:36:56.899Z,6.97
2023-05-19T09:39:27.434Z,7.93
2023-05-19T09:41:59.820Z,7.13
2023-05-19T09:44:34.254Z,7.72
2023-05-19T09:47:05.054Z,6.30
2023-05-19T09:49:36.201Z,5.68
2023-05-19T09:52:09.144Z,6.75
2023-05-19T09:54:40.173Z,5.20
2023-05-19T09:57:10.182Z,6.57
2023-05-19T09:59:41.382Z,5.75
2023-05-19T10:02:15.232Z,6.43
2023-05-19T10:04:46.130Z,7.82
2023-05-19T10:07:16.354Z,6.57
2023-05-19T10:09:46.008Z,6.25
2023-05-19T10:12:16.073Z,6.63
2023-05-19T10:14:45.922Z,5.82
2023-05-19T10:17:15.591Z,4.93
2023-05-19T10:19:45.317Z,6.55
2023-05-19T10:22:15.066Z,5.50
2023-05-19T10:24:44.862Z,6.60
2023-05-19T10:27:18.263Z,5.57
2023-05-19T10:29:50.710Z,5.82
2023-05-19T10:32:26.927Z,5.45
2023-05-19T10:35:17.807Z,6.32
2023-05-19T10:38:08.669Z,5.97
2023-05-19T10:41:10.233Z,6.80
2023-05-19T10:44:09.913Z,6.90
2023-05-19T10:46:39.680Z,5.18
2023-05-19T10:49:12.137Z,5.80
2023-05-19T10:51:42.464Z,6.22
2023-05-19T10:54:14.929Z,6.05
2023-05-19T10:56:49.155Z,5.93
2023-05-19T10:59:42.117Z,6.97
2023-05-19T11:02:34.409Z,5.95
2023-05-19T11:05:22.482Z,6.78
2023-05-19T11:08:20.072Z,6.45
2023-05-19T11:10:49.755Z,5.95
2023-05-19T11:13:26.150Z,6.47
2023-05-19T11:15:56.465Z,6.20
2023-05-19T11:18:26.158Z,6.07
2023-05-19T11:21:00.532Z,6.70
2023-05-19T11:23:30.343Z,5.50
2023-05-19T11:26:00.064Z,6.20
2023-05-19T11:28:31.537Z,6.07
2023-05-19T11:31:01.629Z,5.70
2023-05-19T11:33:32.128Z,7.88
2023-05-19T11:36:02.788Z,7.18
2023-05-19T11:38:33.354Z,7.30
2023-05-19T11:41:03.135Z,6.65
2023-05-19T11:43:36.265Z,7.07
2023-05-19T11:46:06.437Z,7.22
2023-05-19T11:48:36.239Z,7.68
2023-05-19T11:51:06.124Z,6.75
2023-05-19T11:53:38.443Z,6.45
2023-05-19T11:56:08.872Z,6.13
2023-05-19T11:58:40.176Z,6.65
2023-05-19T12:01:11.776Z,6.80
2023-05-19T12:03:43.234Z,7.00
2023-05-19T12:06:13.414Z,7.25
2023-05-19T12:08:43.162Z,7.45
2023-05-19T12:11:12.880Z,7.47
2023-05-19T12:13:42.773Z,7.45
2023-05-19T12:16:13.135Z,6.88
2023-05-19T12:18:43.599Z,7.47
2023-05-19T12:21:13.873Z,7.50
2023-05-19T12:23:44.144Z,7.65
2023-05-19T12:26:15.825Z,8.13
2023-05-19T12:28:51.041Z,6.20
2023-05-19T12:31:21.354Z,7.25
2023-05-19T12:33:54.241Z,7.35
2023-05-19T12:36:25.427Z,8.10
2023-05-19T12:38:58.221Z,8.15
2023-05-19T12:41:28.937Z,8.20
2023-05-19T12:44:01.365Z,7.35
2023-05-19T12:46:31.117Z,7.20
2023-05-19T12:49:05.061Z,8.45
2023-05-19T12:51:35.293Z,8.98
2023-05-19T12:54:09.431Z,8.55
2023-05-19T12:56:42.259Z,6.72
2023-05-19T12:59:11.974Z,7.47
2023-05-19T13:01:42.147Z,8.05
2023-05-19T13:04:12.769Z,8.57
2023-05-19T13:06:47.168Z,8.10
2023-05-19T13:09:17.290Z,7.38
2023-05-19T13:11:50.694Z,7.75
2023-05-19T13:14:20.768Z,8.82
2023-05-19T13:16:50.914Z,9.27
2023-05-19T13:19:25.789Z,8.45
2023-05-19T13:21:56.394Z,8.10
2023-05-19T13:24:26.222Z,7.15
2023-05-19T13:26:56.496Z,8.40
2023-05-19T13:29:26.640Z,8.82
2023-05-19T13:31:56.312Z,7.93
2023-05-19T13:34:26.932Z,7.60
2023-05-19T13:36:59.362Z,8.45
2023-05-19T13:39:29.179Z,9.38
2023-05-19T13:42:01.042Z,8.90
2023-05-19T13:44:30.780Z,9.20
2023-05-19T13:47:01.216Z,8.05
2023-05-19T13:49:30.943Z,8.35
2023-05-19T13:52:01.817Z,7.68
2023-05-19T13:54:31.530Z,8.82
2023-05-19T13:57:01.377Z,9.07
2023-05-19T13:59:31.562Z,9.70
2023-05-19T14:02:01.776Z,9.10
2023-05-19T14:04:31.553Z,9.48
2023-05-19T14:07:01.278Z,8.80
2023-05-19T14:09:33.886Z,9.18
2023-05-19T14:12:03.565Z,8.73
2023-05-19T14:14:34.908Z,9.25
2023-05-19T14:17:04.752Z,8.23
2023-05-19T14:19:34.465Z,8.70
2023-05-19T14:22:04.644Z,10.30
2023-05-19T14:24:35.461Z,8.27
2023-05-19T14:27:05.588Z,9.40
2023-05-19T14:29:36.336Z,10.27
2023-05-19T14:32:07.430Z,8.82
2023-05-19T14:34:37.304Z,8.70
2023-05-19T14:37:07.694Z,10.77
2023-05-19T14:39:37.437Z,9.05
2023-05-19T14:42:07.384Z,8.65
2023-05-19T14:44:39.365Z,9.82
2023-05-19T14:47:09.065Z,8.85
2023-05-19T14:49:39.490Z,8.23
2023-05-19T14:52:10.351Z,8.73
2023-05-19T14:54:40.374Z,9.48
2023-05-19T14:57:10.173Z,10.32
2023-05-19T14:59:40.447Z,8.90
2023-05-19T15:02:10.588Z,9.07
2023-05-19T15:04:40.629Z,9.73
2023-05-19T15:07:10.998Z,8.88
2023-05-19T15:09:41.272Z,8.85
2023-05-19T15:12:11.635Z,10.10
2023-05-19T15:14:41.363Z,9.70
2023-05-19T15:17:12.452Z,10.68
2023-05-19T15:19:44.303Z,8.90
2023-05-19T15:22:13.983Z,8.82
2023-05-19T15:24:43.837Z,8.98
2023-05-19T15:27:13.594Z,9.68
2023-05-19T15:29:43.324Z,10.60
2023-05-19T15:32:13.123Z,8.82
2023-05-19T15:34:42.832Z,9.18
2023-05-19T15:37:12.553Z,9.38
2023-05-19T15:39:42.676Z,11.23
2023-05-19T15:42:12.389Z,9.10
2023-05-19T15:44:43.243Z,10.35
2023-05-19T15:47:12.952Z,10.40
2023-05-19T15:49:43.104Z,8.95
2023-05-19T15:52:13.705Z,9.70
2023-05-19T15:54:43.585Z,11.15
2023-05-19T15:57:15.054Z,9.77
2023-05-19T15:59:48.434Z,8.90
2023-05-19T16:02:18.943Z,10.20
2023-05-19T16:04:49.411Z,10.25
2023-05-19T16:07:20.026Z,10.50
2023-05-19T16:09:51.525Z,10.52
2023-05-19T16:12:21.612Z,10.68
2023-05-19T16:14:51.387Z,9.43
2023-05-19T16:17:21.144Z,9.98
2023-05-19T16:19:50.825Z,11.35
2023-05-19T16:22:21.810Z,10.07
2023-05-19T16:24:53.913Z,10.63
2023-05-19T16:27:24.283Z,10.38
2023-05-19T16:29:54.606Z,9.63
2023-05-19T16:32:24.343Z,8.95
2023-05-19T16:34:54.133Z,10.80
2023-05-19T16:37:24.457Z,10.18
2023-05-19T16:39:54.972Z,9.45
2023-05-19T16:42:25.009Z,12.38
2023-05-19T16:44:54.808Z,10.30
2023-05-19T16:47:27.208Z,10.25
2023-05-19T16:49:56.936Z,9.57
2023-05-19T16:52:26.643Z,10.13
2023-05-19T16:54:57.955Z,9.98
2023-05-19T16:57:27.778Z,11.90
2023-05-19T16:59:58.832Z,10.43
2023-05-19T17:02:28.658Z,10.48
2023-05-19T17:04:59.158Z,11.18
2023-05-19T17:07:30.653Z,10.65
2023-05-19T17:10:00.322Z,10.75
2023-05-19T17:12:30.372Z,11.10
2023-05-19T17:15:00.847Z,10.77
2023-05-19T17:17:30.569Z,11.02
2023-05-19T17:20:00.432Z,10.68
2023-05-19T17:22:30.541Z,9.98
2023-05-19T17:25:00.252Z,10.95
2023-05-19T17:27:30.363Z,10.73
2023-05-19T17:30:00.044Z,10.80
2023-05-19T17:32:39.470Z,12.05
2023-05-19T17:35:13.075Z,10.27
2023-05-19T17:37:43.343Z,10.85
2023-05-19T17:40:13.832Z,10.18
2023-05-19T17:42:44.578Z,11.32
2023-05-19T17:45:14.716Z,12.25
2023-05-19T17:47:45.450Z,10.55
2023-05-19T17:50:15.880Z,10.35
2023-05-19T17:52:45.864Z,11.27
2023-05-19T17:55:16.012Z,13.10
2023-05-19T17:57:49.315Z,11.80
2023-05-19T18:00:19.373Z,12.02
2023-05-19T18:02:49.592Z,11.93
2023-05-19T18:05:19.948Z,11.05
2023-05-19T18:07:49.656Z,10.63
2023-05-19T18:10:19.467Z,10.00
2023-05-19T18:12:49.262Z,11.77
2023-05-19T18:15:19.047Z,10.20
2023-05-19T18:17:49.836Z,11.73
2023-05-19T18:20:19.610Z,11.52
2023-05-19T18:22:49.284Z,11.52
2023-05-19T18:25:20.106Z,10.27
2023-05-19T18:27:50.447Z,10.27
2023-05-19T18:30:20.228Z,11.20
2023-05-19T18:32:50.656Z,11.02
2023-05-19T18:35:23.621Z,10.23
2023-05-19T18:37:58.011Z,10.80
2023-05-19T18:40:28.496Z,12.43
2023-05-19T18:42:58.158Z,10.05
2023-05-19T18:45:28.301Z,10.27
2023-05-19T18:47:58.726Z,12.32
2023-05-19T18:50:28.450Z,11.85
2023-05-19T18:52:58.522Z,10.90
2023-05-19T18:55:28.261Z,11.80
2023-05-19T18:57:57.954Z,11.45
2023-05-19T19:00:30.329Z,11.32
2023-05-19T19:05:30.233Z,10.43
2023-05-19T19:07:59.885Z,10.02
2023-05-19T19:10:29.976Z,10.82
2023-05-19T19:13:01.576Z,11.50
2023-05-19T19:15:32.419Z,11.57
2023-05-19T19:18:02.180Z,10.93
2023-05-19T19:20:32.898Z,11.25
2023-05-19T19:23:05.049Z,9.85
2023-05-19T19:25:38.456Z,11.23
2023-05-19T19:28:09.086Z,11.50
2023-05-19T19:30:38.985Z,10.88
2023-05-19T19:33:08.833Z,10.45
2023-05-19T19:35:38.663Z,10.75
2023-05-19T19:38:09.022Z,11.55
2023-05-19T19:40:38.787Z,10.73
2023-05-19T19:43:08.503Z,11.93
2023-05-19T19:45:40.675Z,11.35
2023-05-19T19:48:10.459Z,11.63
2023-05-19T19:50:40.225Z,12.07
2023-05-19T19:53:10.546Z,10.80
2023-05-19T19:55:40.424Z,11.27
2023-05-19T19:58:17.309Z,11.20
2023-05-19T20:00:46.978Z,10.93
2023-05-19T20:03:17.151Z,11.43
2023-05-19T20:05:46.899Z,12.10
2023-05-19T20:08:17.035Z,10.52
2023-05-19T20:10:48.546Z,12.23
2023-05-19T20:13:18.503Z,12.23
2023-05-19T20:15:48.631Z,11.13
2023-05-19T20:18:18.393Z,10.45
2023-05-19T20:20:48.335Z,10.77
2023-05-19T20:23:18.604Z,13.02
2023-05-19T20:26:09.244Z,11.32
2023-05-19T20:28:39.093Z,11.55
2023-05-19T20:31:12.089Z,13.57
2023-05-19T20:33:41.997Z,11.60
2023-05-19T20:36:12.493Z,12.40
2023-05-19T20:38:42.194Z,12.50
2023-05-19T20:41:12.670Z,11.02
2023-05-19T20:43:42.439Z,12.88
2023-05-19T20:46:12.610Z,12.40
2023-05-19T20:48:43.322Z,12.15
2023-05-19T20:51:15.993Z,12.60
2023-05-19T20:53:45.685Z,11.35
2023-05-19T20:56:18.806Z,12.07
2023-05-19T20:58:48.532Z,11.50
2023-05-19T21:01:18.379Z,12.30
2023-05-19T21:03:50.847Z,12.95
2023-05-19T21:06:21.528Z,11.73
2023-05-19T21:08:51.214Z,11.90
2023-05-19T21:11:20.924Z,12.13
2023-05-19T21:13:51.734Z,12.20
2023-05-19T21:16:21.499Z,12.52
2023-05-19T21:18:52.268Z,11.23
2023-05-19T21:21:22.005Z,13.20
2023-05-19T21:23:51.794Z,12.93
2023-05-19T21:26:21.902Z,13.82
2023-05-19T21:28:51.684Z,11.82
2023-05-19T21:31:21.948Z,11.95
2023-05-19T21:33:52.157Z,11.93
2023-05-19T21:36:21.909Z,13.05
2023-05-19T21:38:51.633Z,13.52
2023-05-19T21:41:21.284Z,12.23
2023-05-19T21:43:53.683Z,13.20
2023-05-19T21:46:24.273Z,12.18
2023-05-19T21:48:54.393Z,12.25
2023-05-19T21:51:24.123Z,12.55
2023-05-19T21:53:54.191Z,12.77
2023-05-19T21:56:24.286Z,13.00
2023-05-19T21:58:54.042Z,12.68
2023-05-19T22:01:24.476Z,11.45
2023-05-19T22:03:55.166Z,13.13
2023-05-19T22:06:25.008Z,12.52
2023-05-19T22:08:55.217Z,13.95
2023-05-19T22:11:25.276Z,12.57
2023-05-19T22:13:56.370Z,12.40
2023-05-19T22:16:26.129Z,13.05
2023-05-19T22:18:56.055Z,12.02
2023-05-19T22:21:26.238Z,11.85
2023-05-19T22:23:56.087Z,12.45
2023-05-19T22:26:25.823Z,13.48
2023-05-19T22:28:56.424Z,12.20
2023-05-19T22:31:26.186Z,13.20
2023-05-19T22:33:57.013Z,12.52
2023-05-19T22:36:27.448Z,13.02
2023-05-19T22:38:57.193Z,11.63
2023-05-19T22:41:26.948Z,13.52
2023-05-19T22:43:56.662Z,12.38
2023-05-19T22:46:27.020Z,12.70
2023-05-19T22:48:59.845Z,12.93
2023-05-19T22:51:29.579Z,13.07
2023-05-19T22:53:59.660Z,12.55
2023-05-19T22:56:29.405Z,13.00
2023-05-19T22:58:59.119Z,12.43
2023-05-19T23:01:28.895Z,12.10
2023-05-19T23:03:58.677Z,12.68
2023-05-19T23:06:28.449Z,13.05
2023-05-19T23:09:05.957Z,13.13
2023-05-19T23:11:37.305Z,13.38
2023-05-19T23:14:07.236Z,14.98
2023-05-19T23:16:37.000Z,12.45
2023-05-19T23:19:07.178Z,14.52
2023-05-19T23:21:38.007Z,13.23
2023-05-19T23:24:08.061Z,13.05
2023-05-19T23:26:37.804Z,13.90
2023-05-19T23:29:07.571Z,13.27
2023-05-19T23:31:37.419Z,13.82
2023-05-19T23:34:07.290Z,14.02
2023-05-19T23:36:38.459Z,13.93
2023-05-19T23:39:09.632Z,13.85
2023-05-19T23:41:39.381Z,12.98
2023-05-19T23:44:09.926Z,13.18
2023-05-19T23:46:39.715Z,12.88
2023-05-19T23:49:10.284Z,15.13
2023-05-19T23:51:39.987Z,13.98
2023-05-19T23:54:12.574Z,13.88
2023-05-19T23:56:42.380Z,13.43
2023-05-19T23:59:12.764Z,14.27
